Time;durP1;ratioP1;P1;durP2;ratioP2;P2;SDS_P1;SDS_P2;PMS_P1;PMS_P2;Temp;Humidity;BMP_temperature;BMP_pressure;BME280_temperature;BME280_humidity;BME280_pressure;Samples;Min_cycle;Max_cycle;Signal;HPM_P1;HPM_P2
2024/01/05 00:01:12;;;;;;;5.28;1.02;;;;;;;8.88;58.69;93861.34;5123270;27;20037;-92
2024/01/05 00:03:37;;;;;;;7.07;1.05;;;;;;;8.72;63.66;93876.31;5123399;27;20031;-92
2024/01/05 00:06:03;;;;;;;2.22;0.68;;;;;;;8.49;65.99;93862.00;5140410;27;20055;-91
2024/01/05 00:08:28;;;;;;;7.13;1.00;;;;;;;8.41;66.69;93867.75;5123613;27;20031;-91
2024/01/05 00:10:54;;;;;;;6.85;0.95;;;;;;;8.13;70.21;93862.06;5123340;27;20038;-92
2024/01/05 00:13:19;;;;;;;11.80;1.13;;;;;;;7.90;73.40;93861.59;5140358;27;20027;-90
2024/01/05 00:15:44;;;;;;;4.32;1.20;;;;;;;7.87;72.61;93859.50;5140160;27;20026;-90
2024/01/05 00:18:10;;;;;;;6.25;1.30;;;;;;;7.80;73.34;93856.38;5140180;27;20023;-90
2024/01/05 00:20:35;;;;;;;4.15;0.70;;;;;;;7.87;74.06;93851.66;5123510;27;20042;-90
2024/01/05 00:23:01;;;;;;;5.78;1.30;;;;;;;7.83;72.93;93861.06;5140072;27;20024;-91
2024/01/05 00:25:27;;;;;;;7.25;1.17;;;;;;;7.81;72.89;93855.34;5123413;27;20031;-90
2024/01/05 00:27:52;;;;;;;5.50;0.90;;;;;;;7.94;75.11;93852.19;5140075;27;20031;-90
2024/01/05 00:30:18;;;;;;;4.35;1.02;;;;;;;7.64;76.24;93853.78;5139890;27;20031;-90
2024/01/05 00:32:44;;;;;;;5.35;0.88;;;;;;;7.56;76.48;93849.06;5139730;27;20110;-90
2024/01/05 00:35:09;;;;;;;2.55;0.70;;;;;;;7.76;77.26;93850.91;5139767;27;20459;-90
2024/01/05 00:37:35;;;;;;;4.75;1.15;;;;;;;7.16;83.30;93864.41;5122713;27;20031;-90
2024/01/05 00:40:01;;;;;;;5.32;1.10;;;;;;;7.39;80.43;93857.94;5122830;27;20031;-89
2024/01/05 00:42:27;;;;;;;7.18;1.15;;;;;;;7.52;79.93;93848.03;5122934;27;20023;-89
2024/01/05 00:44:52;;;;;;;6.30;1.30;;;;;;;7.44;82.67;93865.75;5122985;27;20027;-90
2024/01/05 00:47:18;;;;;;;6.15;1.10;;;;;;;7.27;82.81;93860.78;5139303;27;20027;-90
2024/01/05 00:49:43;;;;;;;5.40;0.90;;;;;;;7.08;83.13;93857.88;5122605;27;20084;-90
2024/01/05 00:52:09;;;;;;;8.82;1.08;;;;;;;6.97;83.74;93862.28;5139382;27;20019;-90
2024/01/05 00:54:34;;;;;;;4.20;0.88;;;;;;;7.24;83.04;93857.91;5121761;27;20038;-90
2024/01/05 00:56:59;;;;;;;5.82;1.20;;;;;;;7.30;80.99;93857.66;5139231;27;20027;-90
2024/01/05 00:59:25;;;;;;;8.73;0.90;;;;;;;7.32;82.53;93862.63;5139557;27;20029;-91
2024/01/05 01:01:51;;;;;;;8.75;1.52;;;;;;;7.35;83.16;93862.88;5118541;28;20073;-90
2024/01/05 01:04:16;;;;;;;5.15;1.27;;;;;;;7.18;82.76;93862.31;5118715;28;20432;-90
2024/01/05 01:06:42;;;;;;;4.90;0.90;;;;;;;7.13;84.60;93870.13;5119151;28;20030;-91
2024/01/05 01:09:08;;;;;;;6.28;1.40;;;;;;;7.16;84.87;93854.75;5118938;28;20340;-91
2024/01/05 01:11:33;;;;;;;6.18;1.20;;;;;;;7.41;85.01;93863.66;5118673;28;20031;-90
2024/01/05 01:13:59;;;;;;;4.40;1.00;;;;;;;7.58;87.36;93863.41;5101675;28;20340;-91
2024/01/05 01:16:24;;;;;;;9.32;1.13;;;;;;;7.06;87.01;93871.16;5101939;28;20336;-90
2024/01/05 01:18:49;;;;;;;4.43;0.98;;;;;;;7.19;85.95;93879.53;5120670;27;20019;-90
2024/01/05 01:21:15;;;;;;;5.00;1.20;;;;;;;7.11;89.59;93872.22;5142905;27;20019;-90
2024/01/05 01:23:40;;;;;;;12.25;1.55;;;;;;;6.86;89.78;93874.47;5159691;27;20111;-91
2024/01/05 01:26:06;;;;;;;4.20;1.08;;;;;;;6.71;94.00;93869.22;5142846;27;20018;-90
2024/01/05 01:28:31;;;;;;;8.93;1.27;;;;;;;6.75;95.59;93867.69;5159386;27;20121;-90
2024/01/05 01:30:57;;;;;;;3.50;0.85;;;;;;;6.65;97.39;93866.59;5142115;27;20420;-90
2024/01/05 01:33:22;;;;;;;4.95;1.05;;;;;;;6.80;93.55;93865.09;5141963;27;20347;-90
2024/01/05 01:35:48;;;;;;;4.40;1.23;;;;;;;6.88;93.96;93866.41;5159401;27;20431;-90
2024/01/05 01:38:13;;;;;;;6.15;1.48;;;;;;;7.01;91.34;93867.75;5159183;27;20098;-90
2024/01/05 01:40:47;;;;;;;11.38;0.98;;;;;;;6.97;89.17;93862.28;5159220;27;20029;-91
2024/01/05 01:43:20;;;;;;;5.05;0.90;;;;;;;7.11;92.89;93867.00;5142168;27;20023;-90
2024/01/05 01:45:50;;;;;;;4.53;1.08;;;;;;;7.06;91.49;93868.53;5142128;27;20059;-91
2024/01/05 01:48:18;;;;;;;3.60;1.50;;;;;;;7.16;87.11;93859.97;5158974;27;20027;-90
2024/01/05 01:50:44;;;;;;;6.28;1.35;;;;;;;6.97;89.78;93861.50;5144413;27;20118;-90
2024/01/05 01:53:11;;;;;;;4.00;0.80;;;;;;;7.21;87.90;93856.59;5138301;27;20027;-90
2024/01/05 01:55:36;;;;;;;4.70;0.85;;;;;;;7.27;88.34;93850.34;5138788;27;20023;-90
2024/01/05 01:58:03;;;;;;;7.45;1.10;;;;;;;7.06;88.78;93854.75;5121440;27;20030;-91
2024/01/05 02:00:29;;;;;;;8.05;0.98;;;;;;;6.97;92.38;93861.50;5128786;27;20110;-90
2024/01/05 02:02:54;;;;;;;6.82;1.08;;;;;;;6.97;93.34;93854.47;5117532;28;20437;-90
2024/01/05 02:05:20;;;;;;;4.93;1.67;;;;;;;6.89;91.45;93850.53;5116639;28;20020;-90
2024/01/05 02:07:45;;;;;;;4.65;1.23;;;;;;;6.87;93.07;93846.63;5117357;28;20023;-90
2024/01/05 02:10:11;;;;;;;10.02;1.25;;;;;;;6.97;90.30;93832.84;5104879;27;20074;-91
2024/01/05 02:12:36;;;;;;;8.13;1.33;;;;;;;6.78;91.32;93838.53;5134046;27;20358;-90
2024/01/05 02:15:02;;;;;;;9.10;1.08;;;;;;;6.82;91.71;93839.56;5100527;28;20051;-90
2024/01/05 02:17:33;;;;;;;5.60;1.00;;;;;;;7.03;89.40;93844.81;5117055;28;20023;-90
2024/01/05 02:19:59;;;;;;;3.05;0.80;;;;;;;7.16;94.01;93846.16;5117222;28;20024;-90
2024/01/05 02:22:29;;;;;;;5.32;1.40;;;;;;;6.89;89.64;93834.91;5100189;28;20030;-90
2024/01/05 02:24:57;;;;;;;7.22;1.02;;;;;;;6.62;94.60;93822.84;5104607;27;20463;-90
2024/01/05 02:27:22;;;;;;;6.75;1.00;;;;;;;6.74;95.24;93833.03;5120676;27;20317;-90
2024/01/05 02:29:48;;;;;;;7.70;1.15;;;;;;;6.87;97.20;93826.56;5120685;27;20076;-91
2024/01/05 02:32:15;;;;;;;9.82;1.15;;;;;;;6.89;96.68;93829.72;5133335;27;20026;-90
2024/01/05 02:34:40;;;;;;;9.25;1.30;;;;;;;6.97;93.44;93822.41;5141082;27;20025;-90
2024/01/05 02:37:06;;;;;;;2.78;0.82;;;;;;;6.83;96.68;93817.69;5159309;27;20022;-90
2024/01/05 02:39:31;;;;;;;7.75;1.30;;;;;;;6.70;100.00;93818.19;5158085;27;20025;-90
2024/01/05 02:41:56;;;;;;;8.18;1.10;;;;;;;6.76;96.03;93820.53;5158086;27;20021;-90
2024/01/05 02:44:22;;;;;;;3.58;0.80;;;;;;;6.93;93.17;93812.53;5158019;27;20053;-90
2024/01/05 02:46:47;;;;;;;6.93;1.50;;;;;;;7.03;95.03;93808.34;5140773;27;20023;-90
2024/01/05 02:49:13;;;;;;;7.22;1.10;;;;;;;6.86;92.63;93808.59;5157856;27;20033;-89
2024/01/05 02:51:39;;;;;;;8.05;1.23;;;;;;;6.85;93.62;93802.59;5140803;27;20334;-90
2024/01/05 02:54:06;;;;;;;4.80;1.00;;;;;;;7.14;94.02;93806.56;5141585;27;20051;-90
2024/01/05 02:56:33;;;;;;;9.88;1.33;;;;;;;7.28;94.83;93799.00;5132416;27;20424;-90
2024/01/05 02:58:59;;;;;;;4.43;0.85;;;;;;;7.28;97.52;93794.59;5137023;27;20427;-90
2024/01/05 03:01:25;;;;;;;3.97;0.95;;;;;;;7.36;98.54;93788.09;5137010;27;20080;-90
2024/01/05 03:03:50;;;;;;;4.72;0.98;;;;;;;7.51;100.00;93795.09;5119966;27;20030;-90
2024/01/05 03:06:16;;;;;;;6.80;1.23;;;;;;;7.39;100.00;93784.94;5135555;27;20034;-91
2024/01/05 03:08:45;;;;;;;4.45;1.00;;;;;;;7.25;100.00;93781.31;5157853;27;20030;-90
2024/01/05 03:11:11;;;;;;;6.70;1.10;;;;;;;7.33;100.00;93776.34;5140519;27;20066;-90
2024/01/05 03:13:37;;;;;;;3.90;1.25;;;;;;;7.28;100.00;93781.56;5140676;27;20073;-89
2024/01/05 03:16:05;;;;;;;8.85;1.20;;;;;;;7.40;100.00;93767.50;5125953;27;20066;-90
2024/01/05 03:18:31;;;;;;;4.82;1.10;;;;;;;7.33;100.00;93778.19;5110360;27;20058;-90
2024/01/05 03:20:56;;;;;;;8.43;1.35;;;;;;;7.28;100.00;93770.34;5130409;27;20069;-90
2024/01/05 03:23:22;;;;;;;7.60;1.35;;;;;;;7.29;100.00;93785.72;5125617;27;20050;-90
2024/01/05 03:25:48;;;;;;;3.75;1.20;;;;;;;7.43;100.00;93772.19;5133622;27;20561;-90
2024/01/05 03:28:13;;;;;;;4.93;1.52;;;;;;;7.42;100.00;93766.19;5136450;27;20030;-90
2024/01/05 03:30:39;;;;;;;7.30;1.30;;;;;;;7.36;100.00;93775.06;5142897;27;20035;-89
2024/01/05 03:33:05;;;;;;;6.30;1.15;;;;;;;7.44;100.00;93766.69;5120880;28;20031;-90
2024/01/05 03:35:30;;;;;;;6.80;1.23;;;;;;;7.57;100.00;93775.03;5136472;27;20034;-90
2024/01/05 03:37:56;;;;;;;4.82;0.82;;;;;;;7.34;100.00;93771.94;5119619;27;20023;-90
2024/01/05 03:40:22;;;;;;;4.50;1.00;;;;;;;6.97;100.00;93775.53;5119291;28;20459;-90
2024/01/05 03:42:48;;;;;;;6.40;1.17;;;;;;;7.09;100.00;93781.28;5136389;27;20114;-89
2024/01/05 03:45:13;;;;;;;3.25;0.80;;;;;;;7.34;100.00;93787.56;5136469;28;20027;-89
2024/01/05 03:47:39;;;;;;;9.32;1.30;;;;;;;7.24;100.00;93780.50;5119446;27;20027;-91
2024/01/05 03:50:05;;;;;;;5.43;1.10;;;;;;;7.32;100.00;93789.66;5119137;28;20080;-90
2024/01/05 03:52:30;;;;;;;5.20;0.98;;;;;;;7.32;100.00;93784.44;5119627;28;20054;-90
2024/01/05 03:54:56;;;;;;;11.20;1.20;;;;;;;7.27;100.00;93779.22;5137575;27;20054;-90
2024/01/05 03:57:22;;;;;;;6.57;1.15;;;;;;;7.44;100.00;93769.28;5136345;27;20031;-90
2024/01/05 03:59:47;;;;;;;3.35;1.08;;;;;;;7.39;100.00;93776.34;5136465;28;20023;-90
2024/01/05 04:02:13;;;;;;;3.42;0.98;;;;;;;7.44;100.00;93776.34;5137402;27;20030;-90
2024/01/05 04:04:39;;;;;;;3.72;0.88;;;;;;;7.26;100.00;93768.03;5127629;28;20027;-90
2024/01/05 04:07:05;;;;;;;4.75;1.13;;;;;;;7.34;100.00;93769.31;5098729;28;20035;-90
2024/01/05 04:09:31;;;;;;;5.47;1.00;;;;;;;7.56;100.00;93758.63;5098962;28;20027;-89
2024/01/05 04:11:57;;;;;;;8.95;1.13;;;;;;;7.45;100.00;93755.22;5123746;27;20334;-90
2024/01/05 04:14:23;;;;;;;5.45;0.93;;;;;;;7.61;100.00;93745.56;5156902;27;20023;-90
2024/01/05 04:16:48;;;;;;;4.75;0.82;;;;;;;7.70;100.00;93748.41;5157766;27;20030;-90
2024/01/05 04:19:14;;;;;;;3.45;0.93;;;;;;;7.64;100.00;93750.25;5139542;27;20125;-90
2024/01/05 04:21:39;;;;;;;4.38;0.90;;;;;;;7.61;100.00;93750.78;5098734;28;20031;-90
2024/01/05 04:24:05;;;;;;;5.45;0.90;;;;;;;7.69;100.00;93739.03;5115562;28;20348;-90
2024/01/05 04:26:31;;;;;;;5.93;1.27;;;;;;;7.72;100.00;93733.28;5115495;28;20492;-90
2024/01/05 04:28:59;;;;;;;2.85;0.90;;;;;;;7.50;100.00;93725.75;5116211;27;20196;-90
2024/01/05 04:31:24;;;;;;;3.85;1.35;;;;;;;7.64;100.00;93728.63;5123132;27;20129;-89
2024/01/05 04:33:50;;;;;;;9.27;1.13;;;;;;;7.72;100.00;93724.69;5122931;27;20426;-90
2024/01/05 04:36:15;;;;;;;4.10;0.90;;;;;;;7.78;100.00;93724.41;5123179;27;20031;-90
2024/01/05 04:38:42;;;;;;;8.80;0.93;;;;;;;7.86;100.00;93719.69;5122781;27;20027;-90
2024/01/05 04:41:07;;;;;;;4.40;1.20;;;;;;;7.90;100.00;93723.34;5122642;27;20027;-91
2024/01/05 04:43:33;;;;;;;6.55;1.05;;;;;;;7.86;100.00;93719.69;5117775;27;20443;-90
2024/01/05 04:45:59;;;;;;;4.18;1.02;;;;;;;7.76;100.00;93710.88;5111991;27;20031;-90
2024/01/05 04:48:25;;;;;;;8.52;0.90;;;;;;;7.73;100.00;93714.00;5136278;27;20034;-90
2024/01/05 04:50:50;;;;;;;5.90;1.00;;;;;;;7.57;100.00;93715.88;5126142;27;20423;-90
2024/01/05 04:53:16;;;;;;;10.68;1.35;;;;;;;7.48;100.00;93720.84;5142838;27;20082;-90
2024/01/05 04:55:41;;;;;;;7.18;0.70;;;;;;;7.59;100.00;93716.38;5160192;27;20110;-90
2024/01/05 04:58:07;;;;;;;5.68;0.80;;;;;;;7.78;100.00;93706.16;5143236;27;20071;-90
2024/01/05 05:00:32;;;;;;;7.22;1.30;;;;;;;7.65;100.00;93709.31;5135259;27;20460;-90
2024/01/05 05:02:58;;;;;;;6.80;1.30;;;;;;;7.46;100.00;93709.91;5118671;28;20031;-90
2024/01/05 05:05:23;;;;;;;5.03;1.00;;;;;;;7.45;100.00;93695.28;5118769;28;20353;-90
2024/01/05 05:07:48;;;;;;;3.92;1.00;;;;;;;7.44;100.00;93687.72;5125799;27;20054;-90
2024/01/05 05:10:15;;;;;;;6.03;1.08;;;;;;;7.62;100.00;93700.19;5139124;27;20030;-90
2024/01/05 05:12:40;;;;;;;5.25;0.80;;;;;;;7.72;100.00;93686.34;5139298;27;20019;-90
2024/01/05 05:15:07;;;;;;;9.50;1.40;;;;;;;7.88;100.00;93688.91;5124772;27;20038;-89
2024/01/05 05:17:32;;;;;;;4.93;0.95;;;;;;;7.88;100.00;93686.31;5159884;27;20046;-90
2024/01/05 05:19:58;;;;;;;5.35;0.90;;;;;;;7.71;100.00;93676.19;5159789;27;20107;-90
2024/01/05 05:22:23;;;;;;;10.85;0.85;;;;;;;7.80;100.00;93692.09;5159611;27;20335;-90
2024/01/05 05:24:50;;;;;;;6.15;1.25;;;;;;;7.92;100.00;93698.53;5122955;27;20027;-91
2024/01/05 05:27:16;;;;;;;7.22;1.08;;;;;;;7.92;100.00;93703.00;5139111;27;20034;-90
2024/01/05 05:29:47;;;;;;;5.22;0.82;;;;;;;7.93;100.00;93707.94;5121626;27;20355;-90
2024/01/05 05:32:12;;;;;;;5.90;1.13;;;;;;;7.95;100.00;93710.28;5126319;27;20035;-91
2024/01/05 05:34:41;;;;;;;6.28;1.02;;;;;;;8.03;100.00;93709.75;5121740;27;20325;-90
2024/01/05 05:37:06;;;;;;;11.55;1.30;;;;;;;7.72;100.00;93709.81;5121706;27;20031;-89
2024/01/05 05:39:32;;;;;;;8.38;1.48;;;;;;;7.62;100.00;93720.28;5137976;27;20451;-90
2024/01/05 05:41:57;;;;;;;3.35;1.10;;;;;;;7.67;100.00;93709.84;5137543;27;20442;-90
2024/01/05 05:44:22;;;;;;;3.45;0.70;;;;;;;7.33;100.00;93700.00;5138815;27;20447;-90
2024/01/05 05:46:48;;;;;;;10.57;1.48;;;;;;;7.37;100.00;93706.25;5121192;27;20035;-90
2024/01/05 05:49:13;;;;;;;4.28;1.40;;;;;;;7.43;100.00;93701.81;5121117;27;20099;-90
2024/01/05 05:51:39;;;;;;;7.65;1.33;;;;;;;7.43;100.00;93696.59;5121007;27;20069;-90
2024/01/05 05:54:04;;;;;;;3.75;0.82;;;;;;;7.49;100.00;93698.13;5138963;27;20031;-89
2024/01/05 05:56:30;;;;;;;3.33;0.90;;;;;;;7.65;100.00;93706.72;5121393;27;20119;-90
2024/01/05 05:58:55;;;;;;;9.98;1.20;;;;;;;7.54;100.00;93700.75;5137641;27;20035;-89
2024/01/05 06:01:21;;;;;;;5.68;1.20;;;;;;;7.58;100.00;93693.16;5121515;27;20054;-90
2024/01/05 06:03:46;;;;;;;7.25;1.58;;;;;;;7.45;100.00;93697.13;5101594;28;20140;-90
2024/01/05 06:06:19;;;;;;;7.93;1.27;;;;;;;7.41;100.00;93690.88;5117529;28;20096;-90
2024/01/05 06:08:45;;;;;;;5.90;1.23;;;;;;;7.45;100.00;93691.91;5117316;28;20511;-89
2024/01/05 06:11:12;;;;;;;4.28;1.02;;;;;;;7.49;100.00;93682.50;5117707;28;20062;-90
2024/01/05 06:13:37;;;;;;;5.68;1.40;;;;;;;7.38;100.00;93686.97;5115798;27;20031;-90
2024/01/05 06:16:03;;;;;;;5.75;1.40;;;;;;;7.59;100.00;93679.09;5120629;27;20454;-90
2024/01/05 06:18:29;;;;;;;6.70;1.13;;;;;;;7.58;100.00;93677.53;5121018;27;20023;-90
2024/01/05 06:20:54;;;;;;;5.35;1.05;;;;;;;7.83;100.00;93679.28;5137732;27;20023;-90
2024/01/05 06:23:20;;;;;;;9.80;1.30;;;;;;;7.99;100.00;93672.19;5141115;27;20023;-89
2024/01/05 06:25:45;;;;;;;3.50;1.50;;;;;;;8.05;100.00;93678.94;5137708;27;20070;-90
2024/01/05 06:28:11;;;;;;;4.28;1.00;;;;;;;8.09;100.00;93683.63;5172044;27;20084;-91
2024/01/05 06:30:36;;;;;;;4.63;1.33;;;;;;;7.99;100.00;93681.84;5129745;27;20070;-90
2024/01/05 06:33:02;;;;;;;8.40;1.10;;;;;;;8.11;100.00;93689.34;5126181;27;20431;-89
2024/01/05 06:35:27;;;;;;;5.90;1.40;;;;;;;8.04;100.00;93681.81;5130478;27;20065;-90
2024/01/05 06:37:53;;;;;;;6.85;1.40;;;;;;;8.10;100.00;93683.34;5135340;27;20034;-89
2024/01/05 06:40:18;;;;;;;5.18;1.52;;;;;;;8.09;100.00;93678.41;5153313;27;20038;-89
2024/01/05 06:42:45;;;;;;;9.05;1.50;;;;;;;8.02;100.00;93670.88;5141340;27;20030;-89
2024/01/05 06:45:10;;;;;;;7.72;1.50;;;;;;;7.86;100.00;93677.97;5141503;27;20437;-89
2024/01/05 06:47:35;;;;;;;7.28;1.30;;;;;;;7.72;100.00;93669.94;5154546;27;20074;-89
2024/01/05 06:50:01;;;;;;;5.43;1.27;;;;;;;7.78;100.00;93667.06;5120468;27;20024;-89
2024/01/05 06:52:26;;;;;;;4.70;1.20;;;;;;;7.85;100.00;93656.34;5137008;27;20041;-90
2024/01/05 06:54:52;;;;;;;4.97;1.13;;;;;;;7.86;100.00;93668.31;5137306;27;20340;-90
2024/01/05 06:57:17;;;;;;;16.13;1.23;;;;;;;7.78;100.00;93672.25;5120733;27;20063;-89
2024/01/05 06:59:43;;;;;;;11.52;1.67;;;;;;;7.82;100.00;93669.13;5127262;27;20031;-89
2024/01/05 07:02:08;;;;;;;3.97;0.98;;;;;;;7.83;100.00;93676.69;5119877;27;20038;-89
2024/01/05 07:04:33;;;;;;;6.82;1.30;;;;;;;8.09;100.00;93667.97;5136998;27;20031;-89
2024/01/05 07:06:59;;;;;;;2.92;1.00;;;;;;;8.05;100.00;93673.72;5120048;27;20034;-89
2024/01/05 07:09:25;;;;;;;5.80;1.42;;;;;;;8.38;100.00;93662.84;5138085;27;20114;-86
2024/01/05 07:11:52;;;;;;;10.93;1.40;;;;;;;8.35;100.00;93666.78;5130536;27;20092;-89
2024/01/05 07:14:17;;;;;;;5.88;1.30;;;;;;;8.38;100.00;93669.91;5130636;27;20031;-88
2024/01/05 07:16:45;;;;;;;6.70;1.50;;;;;;;8.30;100.00;93666.03;5158129;27;20026;-88
2024/01/05 07:19:11;;;;;;;7.55;1.35;;;;;;;8.23;100.00;93678.59;5158247;27;20087;-89
2024/01/05 07:21:45;;;;;;;3.75;1.35;;;;;;;8.20;100.00;93687.75;5140743;27;20026;-89
2024/01/05 07:24:14;;;;;;;5.28;1.25;;;;;;;8.34;100.00;93678.28;5146103;27;20028;-89
2024/01/05 07:26:39;;;;;;;6.97;1.52;;;;;;;8.29;100.00;93678.28;5136953;27;20117;-89
2024/01/05 07:29:05;;;;;;;9.88;3.40;;;;;;;8.30;100.00;93672.03;5138011;27;20031;-89
2024/01/05 07:31:31;;;;;;;7.97;3.10;;;;;;;8.43;100.00;93677.69;5136715;27;20428;-89
2024/01/05 07:33:57;;;;;;;23.77;8.68;;;;;;;8.24;100.00;93667.91;5137035;27;20027;-89
2024/01/05 07:36:22;;;;;;;332.33;136.25;;;;;;;8.37;100.00;93665.75;5120196;28;20424;-89
2024/01/05 07:38:48;;;;;;;226.30;88.63;;;;;;;8.28;100.00;93663.69;5136593;27;20440;-89
2024/01/05 07:41:17;;;;;;;14.25;5.05;;;;;;;8.28;100.00;93666.28;5136892;27;20131;-89
2024/01/05 07:43:43;;;;;;;18.15;6.13;;;;;;;8.26;100.00;93670.25;5120118;28;20083;-89
2024/01/05 07:46:08;;;;;;;171.82;61.65;;;;;;;8.28;100.00;93666.28;5119267;28;20027;-89
2024/01/05 07:48:34;;;;;;;43.65;13.88;;;;;;;8.43;100.00;93664.66;5120010;28;20321;-89
2024/01/05 07:51:03;;;;;;;45.33;18.05;;;;;;;8.50;100.00;93665.16;5119789;28;20445;-89
2024/01/05 07:53:29;;;;;;;81.38;30.67;;;;;;;8.60;100.00;93670.31;5136522;28;20035;-89
2024/01/05 07:55:54;;;;;;;9.25;2.25;;;;;;;8.65;100.00;93655.69;5119650;28;20053;-89
2024/01/05 07:58:20;;;;;;;19.17;5.68;;;;;;;8.66;100.00;93662.47;5119816;28;20030;-90
2024/01/05 08:00:45;;;;;;;13.48;3.45;;;;;;;8.71;100.00;93668.44;5119125;28;20058;-89
2024/01/05 08:03:11;;;;;;;102.97;38.33;;;;;;;8.85;100.00;93668.56;5119571;28;20023;-90
2024/01/05 08:05:40;;;;;;;24.45;7.10;;;;;;;8.81;100.00;93656.31;5124778;27;20037;-90
2024/01/05 08:08:06;;;;;;;19.50;7.15;;;;;;;8.81;100.00;93664.16;5140338;27;20122;-91
2024/01/05 08:10:31;;;;;;;23.35;6.60;;;;;;;8.91;100.00;93654.44;5123411;27;20470;-91
2024/01/05 08:12:56;;;;;;;15.43;2.65;;;;;;;8.93;100.00;93658.59;5140255;27;20050;-90
2024/01/05 08:15:22;;;;;;;11.10;1.77;;;;;;;8.79;100.00;93648.78;5139562;27;20026;-90
2024/01/05 08:17:47;;;;;;;16.20;5.43;;;;;;;8.87;100.00;93636.97;5140191;27;20026;-92
2024/01/05 08:20:13;;;;;;;33.15;11.30;;;;;;;9.02;100.00;93643.88;5138144;27;20347;-92
2024/01/05 08:22:38;;;;;;;31.77;10.27;;;;;;;9.12;100.00;93645.66;5127386;27;20019;-91
2024/01/05 08:25:04;;;;;;;13.00;2.20;;;;;;;8.91;100.00;93640.59;5144109;27;20030;-89
2024/01/05 08:27:30;;;;;;;20.40;3.72;;;;;;;8.90;100.00;93654.69;5144099;27;20030;-87
2024/01/05 08:29:55;;;;;;;12.13;2.28;;;;;;;8.82;100.00;93656.06;5160963;27;20022;-87
2024/01/05 08:32:21;;;;;;;8.77;2.28;;;;;;;8.87;100.00;93644.81;5143813;27;20066;-87
2024/01/05 08:34:46;;;;;;;8.02;1.80;;;;;;;8.92;100.00;93655.19;5144149;27;20046;-87
2024/01/05 08:37:12;;;;;;;16.08;2.10;;;;;;;9.18;100.00;93652.38;5160802;27;20023;-87
2024/01/05 08:39:41;;;;;;;12.10;2.40;;;;;;;9.07;100.00;93646.47;5155968;27;20034;-86
2024/01/05 08:42:07;;;;;;;11.40;2.05;;;;;;;9.12;100.00;93654.25;5125216;27;20041;-88
2024/01/05 08:44:34;;;;;;;14.80;3.28;;;;;;;9.25;100.00;93649.44;5139961;27;20031;-87
2024/01/05 08:47:00;;;;;;;20.50;8.68;;;;;;;9.54;100.00;93651.25;5140863;27;20176;-88
2024/01/05 08:49:26;;;;;;;14.45;5.50;;;;;;;9.69;100.00;93653.69;5139663;27;20108;-88
2024/01/05 08:51:52;;;;;;;11.13;3.28;;;;;;;9.59;100.00;93657.22;5129264;27;20415;-88
2024/01/05 08:54:17;;;;;;;11.82;2.03;;;;;;;9.70;100.00;93644.78;5120297;28;20023;-87
2024/01/05 08:56:42;;;;;;;14.45;2.25;;;;;;;9.62;100.00;93640.19;5126493;27;20033;-88
2024/01/05 08:59:08;;;;;;;33.88;12.73;;;;;;;9.85;100.00;93645.66;5160384;27;20084;-88
2024/01/05 09:01:33;;;;;;;16.25;5.88;;;;;;;9.90;100.00;93646.38;5156474;27;20084;-87
2024/01/05 09:04:00;;;;;;;13.43;3.08;;;;;;;9.83;100.00;93650.41;5140751;27;20019;-88
2024/01/05 09:06:25;;;;;;;13.00;3.13;;;;;;;9.76;100.00;93630.59;5125577;27;20038;-87
2024/01/05 09:08:51;;;;;;;40.72;12.48;;;;;;;9.82;100.00;93635.78;5118561;28;20798;-88
2024/01/05 09:11:16;;;;;;;11.18;3.13;;;;;;;9.92;100.00;93632.25;5132021;27;20027;-88
2024/01/05 09:13:42;;;;;;;83.57;30.60;;;;;;;9.96;100.00;93628.78;5139359;27;20343;-88
2024/01/05 09:16:09;;;;;;;13.75;4.38;;;;;;;9.83;100.00;93634.72;5121634;27;20057;-91
2024/01/05 09:18:37;;;;;;;46.13;15.05;;;;;;;10.00;100.00;93640.25;5140128;27;20027;-86
2024/01/05 09:21:06;;;;;;;18.50;4.60;;;;;;;9.99;100.00;93643.94;5138969;27;20050;-85
2024/01/05 09:23:32;;;;;;;14.88;2.50;;;;;;;9.72;100.00;93623.59;5138967;27;20470;-85
2024/01/05 09:25:57;;;;;;;13.10;3.10;;;;;;;9.97;100.00;93622.50;5102880;28;20063;-85
2024/01/05 09:28:23;;;;;;;23.83;8.13;;;;;;;10.17;100.00;93613.59;5134650;27;20029;-85
2024/01/05 09:30:48;;;;;;;24.60;9.45;;;;;;;10.35;100.00;93613.13;5139925;27;20100;-89
2024/01/05 09:33:15;;;;;;;13.15;4.05;;;;;;;10.51;100.00;93624.16;5140484;27;20484;-88
2024/01/05 09:35:42;;;;;;;61.67;26.35;;;;;;;10.36;100.00;93630.38;5138969;27;20023;-86
2024/01/05 09:38:07;;;;;;;13.98;5.20;;;;;;;10.40;100.00;93619.06;5138625;27;20127;-88
2024/01/05 09:40:33;;;;;;;9.32;2.05;;;;;;;10.07;100.00;93611.13;5138847;27;20073;-89
2024/01/05 09:43:02;;;;;;;18.83;6.57;;;;;;;10.11;100.00;93619.19;5139364;27;20023;-88
2024/01/05 09:45:27;;;;;;;14.90;3.80;;;;;;;10.04;100.00;93615.09;5138756;27;20026;-89
2024/01/05 09:47:55;;;;;;;10.70;1.77;;;;;;;10.12;100.00;93611.06;5121348;27;20336;-89
2024/01/05 09:50:20;;;;;;;8.10;1.85;;;;;;;10.18;100.00;93603.91;5147319;27;20430;-89
2024/01/05 09:52:46;;;;;;;7.70;1.70;;;;;;;9.98;100.00;93600.50;5138619;27;20031;-87
2024/01/05 09:55:14;;;;;;;8.65;2.20;;;;;;;10.06;100.00;93604.31;5139837;27;20108;-90
2024/01/05 09:57:41;;;;;;;6.75;1.92;;;;;;;9.86;100.00;93610.59;5138253;27;20037;-90
2024/01/05 10:00:18;;;;;;;;;;;;;;;;;;;;;
2024/01/05 10:02:53;;;;;;;12.80;3.17;;;;;;;9.88;100.00;93592.78;5159063;27;20019;-90
2024/01/05 10:05:19;;;;;;;15.40;1.90;;;;;;;9.94;100.00;93588.25;5158861;27;20083;-87
2024/01/05 10:07:44;;;;;;;6.68;2.10;;;;;;;10.09;100.00;93587.28;5134314;27;20038;-90
2024/01/05 10:10:16;;;;;;;11.07;2.38;;;;;;;10.19;100.00;93581.91;5159913;27;20355;-89
2024/01/05 10:12:41;;;;;;;5.05;1.92;;;;;;;9.84;100.00;93581.31;5142732;27;20060;-87
2024/01/05 10:15:07;;;;;;;5.85;2.15;;;;;;;9.88;100.00;93571.84;5160069;27;20027;-89
2024/01/05 10:17:34;;;;;;;6.10;1.33;;;;;;;9.93;100.00;93563.16;5133865;27;20063;-88
2024/01/05 10:20:15;;;;;;;11.40;4.22;;;;;;;10.07;100.00;93579.72;5118818;28;20031;-88
2024/01/05 10:22:46;;;;;;;1.73;0.73;;;;;;;10.04;100.00;93582.91;5135746;27;20065;-89
2024/01/05 10:25:23;;;;;;;3.63;1.20;;;;;;;10.00;100.00;93572.22;5151028;27;20095;-85
2024/01/05 10:27:49;;;;;;;3.17;0.60;;;;;;;10.19;100.00;93564.34;5137976;27;20034;-88
2024/01/05 10:30:26;;;;;;;7.80;1.05;;;;;;;10.24;100.00;93565.34;5138220;27;20068;-87
2024/01/05 10:33:03;;;;;;;2.28;0.85;;;;;;;10.28;100.00;93580.19;5146127;27;20037;-86
2024/01/05 10:35:30;;;;;;;3.08;0.90;;;;;;;10.23;100.00;93572.44;5125301;27;20114;-87
2024/01/05 10:38:08;;;;;;;6.53;1.40;;;;;;;10.25;100.00;93566.88;5117233;28;20425;-87
2024/01/05 10:40:33;;;;;;;2.38;0.85;;;;;;;10.14;100.00;93547.94;5125121;27;20058;-87
2024/01/05 10:43:12;;;;;;;5.57;1.95;;;;;;;10.28;100.00;93550.63;5135279;27;20062;-88
2024/01/05 10:45:39;;;;;;;7.65;1.90;;;;;;;10.41;100.00;93543.91;5132598;27;20444;-88
2024/01/05 10:48:07;;;;;;;8.30;2.33;;;;;;;10.46;100.00;93551.69;5133069;27;20113;-89
2024/01/05 10:50:34;;;;;;;5.50;0.82;;;;;;;10.63;100.00;93537.31;5137759;27;20088;-89
2024/01/05 10:53:01;;;;;;;2.13;0.73;;;;;;;10.48;100.00;93536.50;5152454;27;20034;-89
2024/01/05 10:55:27;;;;;;;13.95;5.55;;;;;;;10.56;100.00;93507.00;5158520;27;20327;-89
2024/01/05 10:57:53;;;;;;;5.15;1.00;;;;;;;10.33;100.00;93498.19;5141013;27;20031;-86
2024/01/05 11:00:24;;;;;;;6.82;1.02;;;;;;;10.40;100.00;93497.81;5155601;27;20038;-87
2024/01/05 11:02:51;;;;;;;4.78;1.23;;;;;;;10.45;100.00;93505.63;5137488;27;20328;-87
2024/01/05 11:05:16;;;;;;;6.32;1.33;;;;;;;10.57;100.00;93497.31;5137266;27;20027;-88
2024/01/05 11:07:42;;;;;;;2.53;0.73;;;;;;;10.83;100.00;93483.75;5137172;27;20056;-88
2024/01/05 11:10:11;;;;;;;6.82;1.70;;;;;;;11.07;100.00;93472.31;5147230;27;20346;-84
2024/01/05 11:13:15;;;;;;;6.70;1.10;;;;;;;10.66;100.00;93439.78;5143943;27;20022;-84
2024/01/05 11:15:50;;;;;;;20.88;8.30;;;;;;;10.71;100.00;93458.03;5132467;27;20032;-84
2024/01/05 11:18:48;;;;;;;12.13;4.13;;;;;;;10.79;100.00;93444.28;5099343;28;20027;-84
2024/01/05 11:21:26;;;;;;;5.10;1.65;;;;;;;10.72;100.00;93443.88;5122591;27;20034;-83
2024/01/05 11:23:54;;;;;;;4.00;1.73;;;;;;;11.05;100.00;93435.13;5157475;27;20027;-84
2024/01/05 11:26:34;;;;;;;6.95;2.63;;;;;;;11.25;100.00;93433.94;5140144;27;20027;-84
2024/01/05 11:29:01;;;;;;;8.55;1.73;;;;;;;11.31;100.00;93419.66;5158485;27;20049;-92
2024/01/05 11:32:02;;;;;;;6.18;1.10;;;;;;;10.88;100.00;93424.16;5147091;27;20019;-92